Time;durP1;ratioP1;P1;durP2;ratioP2;P2;SDS_P1;SDS_P2;PMS_P1;PMS_P2;Temp;Humidity;BMP_temperature;BMP_pressure;BME280_temperature;BME280_humidity;BME280_pressure;Samples;Min_cycle;Max_cycle;Signal;HPM_P1;HPM_P2
2022/06/08 00:00:16;;;;;;;14.00;9.35;;;9.70;99.90;;;;;;4974034;28;20090;-85
2022/06/08 00:02:43;;;;;;;9.55;7.88;;;9.60;99.90;;;;;;4961074;28;20573;-86
2022/06/08 00:05:10;;;;;;;12.02;8.07;;;9.70;99.90;;;;;;4962115;28;20453;-85
2022/06/08 00:07:36;;;;;;;11.65;8.45;;;9.70;99.90;;;;;;4966028;28;20544;-85
2022/06/08 00:10:03;;;;;;;11.63;8.15;;;9.60;99.90;;;;;;4983276;28;20042;-85
2022/06/08 00:12:29;;;;;;;10.20;8.32;;;9.60;99.90;;;;;;4964112;28;20467;-86
2022/06/08 00:14:57;;;;;;;13.73;9.13;;;9.70;99.90;;;;;;4968358;28;20055;-85
2022/06/08 00:17:23;;;;;;;10.95;8.43;;;9.60;99.90;;;;;;4962489;28;20058;-85
2022/06/08 00:19:49;;;;;;;14.35;9.18;;;9.60;99.90;;;;;;4963781;28;20049;-86
2022/06/08 00:22:14;;;;;;;14.98;8.80;;;9.60;99.90;;;;;;4959678;28;20061;-86
2022/06/08 00:24:40;;;;;;;16.45;9.90;;;9.50;99.90;;;;;;4964657;28;20435;-85
2022/06/08 00:27:07;;;;;;;12.80;8.80;;;9.50;99.90;;;;;;4965157;28;20034;-86
2022/06/08 00:29:33;;;;;;;15.40;9.75;;;9.60;99.90;;;;;;4965352;28;20055;-86
2022/06/08 00:31:59;;;;;;;12.02;7.93;;;9.50;99.90;;;;;;4965018;28;20475;-85
2022/06/08 00:34:25;;;;;;;12.55;8.82;;;9.50;99.90;;;;;;4965966;28;20042;-85
2022/06/08 00:36:50;;;;;;;9.00;7.20;;;9.50;99.90;;;;;;4963077;28;20121;-85
2022/06/08 00:39:16;;;;;;;15.10;8.43;;;9.50;99.90;;;;;;4963649;28;20042;-85
2022/06/08 00:41:49;;;;;;;12.75;8.73;;;9.50;99.90;;;;;;4959941;28;20058;-86
2022/06/08 00:44:39;;;;;;;14.55;8.93;;;9.50;99.90;;;;;;4987231;28;20125;-85
2022/06/08 00:47:08;;;;;;;13.27;7.93;;;9.50;99.90;;;;;;4992532;28;20058;-86
2022/06/08 00:49:48;;;;;;;16.80;9.38;;;9.50;99.90;;;;;;4992366;28;20046;-86
2022/06/08 00:52:15;;;;;;;11.65;8.00;;;9.50;99.90;;;;;;4950371;28;20054;-86
2022/06/08 00:54:50;;;;;;;13.52;7.72;;;9.50;99.90;;;;;;4963817;28;20127;-85
2022/06/08 00:57:30;;;;;;;13.68;8.32;;;9.40;99.90;;;;;;4964504;28;20047;-86
2022/06/08 01:00:11;;;;;;;13.13;8.98;;;9.50;99.90;;;;;;4982297;28;20053;-86
2022/06/08 01:02:37;;;;;;;14.82;8.73;;;9.50;99.90;;;;;;4979146;28;20449;-87
2022/06/08 01:05:23;;;;;;;10.00;7.57;;;9.50;99.90;;;;;;4947616;28;20054;-86
2022/06/08 01:07:51;;;;;;;11.25;8.13;;;9.50;99.90;;;;;;4993339;28;20573;-86
2022/06/08 01:10:21;;;;;;;14.18;8.30;;;9.40;99.90;;;;;;4964646;28;20394;-87
2022/06/08 01:12:47;;;;;;;14.95;8.80;;;9.50;99.90;;;;;;4980179;28;20377;-86
2022/06/08 01:15:19;;;;;;;13.02;8.05;;;9.50;99.90;;;;;;4966963;28;20046;-86
2022/06/08 01:17:45;;;;;;;12.88;8.88;;;9.50;99.90;;;;;;4948411;28;20802;-86
2022/06/08 01:20:12;;;;;;;12.80;9.07;;;9.50;99.90;;;;;;4962026;28;20043;-86
2022/06/08 01:22:38;;;;;;;15.48;9.68;;;9.50;99.90;;;;;;4992546;28;20137;-87
2022/06/08 01:25:06;;;;;;;16.38;9.05;;;9.50;99.90;;;;;;4964439;28;20038;-86
2022/06/08 01:27:41;;;;;;;10.55;8.07;;;9.50;99.90;;;;;;4990721;28;20034;-86
2022/06/08 01:30:27;;;;;;;16.70;10.52;;;9.40;99.90;;;;;;4964461;28;20039;-86
2022/06/08 01:32:56;;;;;;;15.35;9.25;;;9.50;99.90;;;;;;4964222;28;20047;-86
2022/06/08 01:35:41;;;;;;;16.08;8.73;;;9.40;99.90;;;;;;4962515;28;20038;-85
2022/06/08 01:38:31;;;;;;;15.10;9.23;;;9.40;99.90;;;;;;4991785;28;20115;-86
2022/06/08 01:41:21;;;;;;;13.05;9.27;;;9.40;99.90;;;;;;4963750;28;20312;-85
2022/06/08 01:43:56;;;;;;;15.60;9.25;;;9.40;99.90;;;;;;4991835;28;20054;-86
2022/06/08 01:46:28;;;;;;;17.33;10.32;;;9.50;99.90;;;;;;4991457;28;20046;-86
2022/06/08 01:49:27;;;;;;;14.93;9.93;;;9.40;99.90;;;;;;4990058;28;21298;-86
2022/06/08 01:52:20;;;;;;;12.98;8.45;;;9.50;99.90;;;;;;4975637;28;20045;-86
2022/06/08 01:54:52;;;;;;;19.33;9.70;;;9.40;99.90;;;;;;4963634;28;20454;-85
2022/06/08 01:57:50;;;;;;;14.70;8.70;;;9.50;99.90;;;;;;4960699;28;20043;-86
2022/06/08 02:00:23;;;;;;;13.77;8.90;;;9.50;99.90;;;;;;4976273;28;20047;-85
2022/06/08 02:03:07;;;;;;;14.00;9.02;;;9.50;99.90;;;;;;4962966;28;20133;-85
2022/06/08 02:05:48;;;;;;;14.70;9.65;;;9.50;99.90;;;;;;4989656;28;20166;-86
2022/06/08 02:08:37;;;;;;;17.27;10.10;;;9.60;99.90;;;;;;4990464;28;20312;-85
2022/06/08 02:11:11;;;;;;;16.83;9.70;;;9.50;99.90;;;;;;4948635;28;20034;-86
2022/06/08 02:13:54;;;;;;;;;;;9.60;99.90;;;;;;4965718;28;20039;-85
2022/06/08 02:16:53;;;;;;;16.38;9.50;;;9.50;99.90;;;;;;4961972;28;19926;-85
2022/06/08 02:19:36;;;;;;;14.32;9.43;;;9.50;99.90;;;;;;4991111;28;20255;-85
2022/06/08 02:22:11;;;;;;;17.60;10.40;;;9.40;99.90;;;;;;4964659;28;20089;-86
2022/06/08 02:24:54;;;;;;;15.90;9.68;;;9.40;99.90;;;;;;4992236;28;20047;-85
2022/06/08 02:27:34;;;;;;;16.13;9.88;;;9.40;99.90;;;;;;4961379;28;20405;-85
2022/06/08 02:30:17;;;;;;;13.15;9.80;;;9.40;99.90;;;;;;4961052;28;20406;-85
2022/06/08 02:35:59;;;;;;;22.25;11.48;;;9.40;1.00;;;;;;4978713;28;20047;-86
2022/06/08 02:38:32;;;;;;;18.95;11.23;;;9.50;1.00;;;;;;4944640;28;20046;-86
2022/06/08 02:41:01;;;;;;;21.50;11.52;;;9.50;1.00;;;;;;4988903;28;20450;-86
2022/06/08 02:43:32;;;;;;;18.50;11.70;;;9.50;1.00;;;;;;4975505;28;20154;-86
2022/06/08 02:46:22;;;;;;;22.92;11.68;;;9.60;1.00;;;;;;4962245;28;20469;-86
2022/06/08 02:48:48;;;;;;;22.70;13.55;;;9.60;1.00;;;;;;4964331;28;20497;-86
2022/06/08 02:51:14;;;;;;;23.08;13.73;;;9.60;1.00;;;;;;4949442;28;20210;-86
2022/06/08 02:53:46;;;;;;;28.92;14.38;;;9.60;1.00;;;;;;4965199;28;20038;-82
2022/06/08 02:56:45;;;;;;;20.70;12.85;;;9.60;1.00;;;;;;4961897;28;20545;-82
2022/06/08 02:59:16;;;;;;;23.75;12.73;;;9.60;1.00;;;;;;4990838;28;20069;-82
2022/06/08 03:02:22;;;;;;;19.65;12.82;;;9.60;1.00;;;;;;4989573;28;20545;-82
2022/06/08 03:04:51;;;;;;;22.48;12.88;;;9.60;1.00;;;;;;4960463;28;20061;-81
2022/06/08 03:07:23;;;;;;;26.42;14.13;;;9.70;1.00;;;;;;4989619;28;20043;-82
2022/06/08 03:09:50;;;;;;;22.67;13.15;;;9.60;1.00;;;;;;4948628;28;20057;-82
2022/06/08 03:12:25;;;;;;;24.42;14.30;;;9.70;1.00;;;;;;4964090;28;20050;-82
2022/06/08 03:14:51;;;;;;;28.25;15.23;;;9.70;1.00;;;;;;4965733;28;20054;-81
2022/06/08 03:17:23;;;;;;;23.50;13.90;;;9.60;1.00;;;;;;4966285;28;20479;-81
2022/06/08 03:19:48;;;;;;;24.55;14.63;;;9.70;1.00;;;;;;4981698;28;20053;-82
2022/06/08 03:22:16;;;;;;;24.30;14.20;;;9.60;1.00;;;;;;4964223;28;20039;-82
2022/06/08 03:24:45;;;;;;;25.00;14.38;;;9.70;1.00;;;;;;4965801;28;20055;-82
2022/06/08 03:27:11;;;;;;;24.08;14.63;;;9.60;1.00;;;;;;4979713;28;20510;-82
2022/06/08 03:29:38;;;;;;;26.33;14.73;;;9.70;1.00;;;;;;4968238;28;20536;-82
2022/06/08 03:32:04;;;;;;;25.00;13.55;;;9.60;1.00;;;;;;4949631;28;20051;-82
2022/06/08 03:34:31;;;;;;;24.25;14.02;;;9.60;1.00;;;;;;4966724;28;20109;-82
2022/06/08 03:36:57;;;;;;;21.10;12.57;;;9.60;1.00;;;;;;4993948;28;20051;-82
2022/06/08 03:39:23;;;;;;;24.73;12.90;;;9.60;1.00;;;;;;4948523;28;20132;-82
2022/06/08 03:41:49;;;;;;;19.13;13.38;;;9.70;1.00;;;;;;4964743;28;20047;-82
2022/06/08 03:44:14;;;;;;;22.92;13.27;;;9.70;1.00;;;;;;4982416;28;20050;-82
2022/06/08 03:46:49;;;;;;;18.42;12.38;;;9.70;1.00;;;;;;4962426;28;20453;-82
2022/06/08 03:49:15;;;;;;;25.30;13.85;;;9.70;1.00;;;;;;4965294;28;20050;-82
2022/06/08 03:51:41;;;;;;;25.20;13.23;;;9.70;1.00;;;;;;4964375;28;20030;-82
2022/06/08 03:54:17;;;;;;;24.92;14.95;;;9.80;1.00;;;;;;4983365;28;20046;-82
2022/06/08 03:56:48;;;;;;;22.88;14.00;;;9.80;1.00;;;;;;4977527;28;20056;-82
2022/06/08 03:59:14;;;;;;;24.48;15.07;;;9.90;1.00;;;;;;4964778;28;20114;-82
2022/06/08 04:01:40;;;;;;;22.30;14.82;;;10.00;1.00;;;;;;4964848;28;21014;-82
2022/06/08 04:04:06;;;;;;;23.92;14.05;;;10.00;1.00;;;;;;4950506;28;20050;-82
2022/06/08 04:06:32;;;;;;;30.23;15.73;;;10.10;1.00;;;;;;4967520;28;20149;-82
2022/06/08 04:08:58;;;;;;;23.02;14.32;;;10.20;1.00;;;;;;4981718;28;20042;-82
2022/06/08 04:11:24;;;;;;;26.48;15.48;;;10.20;1.00;;;;;;4962105;28;20524;-82
2022/06/08 04:13:50;;;;;;;25.95;15.40;;;10.30;1.00;;;;;;4976396;28;20031;-82
2022/06/08 04:16:15;;;;;;;24.48;15.70;;;10.50;1.00;;;;;;4966229;28;20149;-82
2022/06/08 04:18:42;;;;;;;31.33;17.30;;;10.70;1.00;;;;;;4958449;28;20046;-82
2022/06/08 04:21:10;;;;;;;26.45;16.77;;;10.80;1.00;;;;;;4968432;28;20051;-82
2022/06/08 04:23:37;;;;;;;31.00;18.85;;;11.00;1.00;;;;;;4975406;28;20038;-82
2022/06/08 04:26:06;;;;;;;31.42;18.90;;;11.20;1.00;;;;;;4977555;28;20101;-82
2022/06/08 04:28:33;;;;;;;31.80;19.40;;;11.50;1.10;;;;;;4963529;28;20042;-82
2022/06/08 04:30:59;;;;;;;35.45;20.33;;;11.80;12.50;;;;;;4961764;28;20039;-82
2022/06/08 04:33:25;;;;;;;29.33;19.80;;;12.00;32.10;;;;;;4963021;28;20038;-82
2022/06/08 04:35:51;;;;;;;31.70;20.90;;;12.30;47.60;;;;;;4964235;28;20042;-82
2022/06/08 04:38:17;;;;;;;26.13;18.75;;;12.60;31.60;;;;;;4965892;28;20089;-82
2022/06/08 04:40:44;;;;;;;28.55;17.80;;;12.50;1.00;;;;;;4975531;28;20139;-82
2022/06/08 04:43:10;;;;;;;26.25;17.77;;;12.50;1.00;;;;;;4963921;28;20146;-81
2022/06/08 04:45:36;;;;;;;26.00;18.05;;;12.50;1.00;;;;;;4968133;28;20126;-82
2022/06/08 04:48:04;;;;;;;24.95;17.25;;;12.50;1.00;;;;;;4945951;28;20038;-82
2022/06/08 04:50:30;;;;;;;26.60;17.98;;;12.40;1.00;;;;;;4963675;28;20135;-82
2022/06/08 04:52:56;;;;;;;22.23;16.77;;;12.50;1.00;;;;;;4988988;28;20042;-82
2022/06/08 04:55:25;;;;;;;27.20;18.35;;;12.40;1.00;;;;;;4961957;28;20038;-81
2022/06/08 04:57:51;;;;;;;25.20;17.70;;;12.50;1.00;;;;;;4968826;28;20070;-82
2022/06/08 05:00:21;;;;;;;24.02;17.08;;;12.50;1.00;;;;;;4943784;28;20437;-82
2022/06/08 05:02:49;;;;;;;26.73;17.95;;;12.60;1.00;;;;;;4948449;28;20509;-81
2022/06/08 05:05:30;;;;;;;26.08;18.10;;;12.60;1.00;;;;;;4965453;28;20046;-82
2022/06/08 05:07:56;;;;;;;28.75;18.75;;;12.60;1.00;;;;;;4975559;28;20066;-82
2022/06/08 05:10:24;;;;;;;25.70;17.48;;;12.70;1.00;;;;;;4974676;28;20041;-82
2022/06/08 05:12:50;;;;;;;24.70;17.60;;;12.70;1.00;;;;;;4973890;28;20540;-82
2022/06/08 05:15:28;;;;;;;24.50;17.10;;;12.90;1.00;;;;;;4964604;28;20055;-82
2022/06/08 05:17:54;;;;;;;26.80;18.85;;;12.90;1.00;;;;;;4977216;28;20035;-82
2022/06/08 05:20:21;;;;;;;24.15;17.40;;;12.90;99.90;;;;;;4963439;28;20065;-82
2022/06/08 05:22:47;;;;;;;27.63;18.30;;;12.90;99.90;;;;;;4962660;28;20074;-81
2022/06/08 05:25:17;;;;;;;26.48;17.90;;;13.00;99.90;;;;;;4961549;28;20494;-81
2022/06/08 05:27:43;;;;;;;28.92;20.05;;;13.10;99.90;;;;;;4967069;28;20468;-81
2022/06/08 05:30:10;;;;;;;25.58;17.98;;;13.20;99.90;;;;;;4979850;28;20060;-82
2022/06/08 05:32:37;;;;;;;30.38;19.70;;;13.20;99.90;;;;;;4978125;28;20132;-81
2022/06/08 05:35:04;;;;;;;28.55;18.83;;;13.40;99.90;;;;;;4981675;28;20042;-81
2022/06/08 05:37:29;;;;;;;26.73;19.48;;;13.50;99.90;;;;;;4974347;28;20050;-81
2022/06/08 05:39:55;;;;;;;24.83;18.40;;;13.60;99.90;;;;;;4981019;28;20047;-81
2022/06/08 05:42:21;;;;;;;28.17;19.70;;;13.70;99.90;;;;;;4964107;28;20054;-82
2022/06/08 05:44:46;;;;;;;25.40;18.08;;;13.70;99.90;;;;;;4962045;28;20453;-81
2022/06/08 05:47:12;;;;;;;27.13;19.98;;;13.80;99.90;;;;;;4960397;28;20050;-81
2022/06/08 05:49:39;;;;;;;27.88;19.23;;;14.00;99.90;;;;;;4979841;28;20051;-81
2022/06/08 05:52:07;;;;;;;27.98;19.05;;;14.10;99.90;;;;;;4964872;28;20034;-81
2022/06/08 05:54:33;;;;;;;26.38;20.13;;;14.30;99.90;;;;;;4963090;28;20582;-81
2022/06/08 05:57:02;;;;;;;27.65;19.95;;;14.40;99.90;;;;;;4963954;28;20383;-81
2022/06/08 05:59:28;;;;;;;24.80;18.92;;;14.50;99.90;;;;;;4976484;28;20066;-84
2022/06/08 06:01:54;;;;;;;26.17;19.00;;;14.60;99.90;;;;;;4960935;28;20051;-85
2022/06/08 06:04:21;;;;;;;27.52;18.52;;;14.70;99.90;;;;;;4963308;28;20057;-84
2022/06/08 06:06:47;;;;;;;26.77;19.63;;;14.70;99.90;;;;;;4992503;28;20450;-84
2022/06/08 06:09:17;;;;;;;25.83;18.52;;;15.00;99.90;;;;;;4965163;28;20113;-84
2022/06/08 06:11:44;;;;;;;23.00;17.50;;;15.00;99.90;;;;;;4963230;28;20269;-84
2022/06/08 06:14:10;;;;;;;23.23;17.80;;;15.10;99.90;;;;;;4992762;28;20038;-84
2022/06/08 06:16:37;;;;;;;22.42;17.60;;;15.00;99.90;;;;;;4959867;28;20501;-84
2022/06/08 06:19:03;;;;;;;24.05;17.75;;;15.30;99.90;;;;;;4964595;28;20042;-84
2022/06/08 06:21:29;;;;;;;24.05;18.25;;;15.30;99.90;;;;;;4961467;28;20050;-84
2022/06/08 06:24:00;;;;;;;23.33;17.65;;;15.50;99.90;;;;;;4960891;28;20107;-84
2022/06/08 06:26:27;;;;;;;24.10;17.45;;;15.50;99.90;;;;;;4959201;28;20108;-84
2022/06/08 06:28:52;;;;;;;20.35;17.02;;;15.70;99.90;;;;;;4991184;28;20093;-84
2022/06/08 06:31:26;;;;;;;19.67;16.05;;;15.80;99.90;;;;;;4958835;28;20093;-84
2022/06/08 06:33:51;;;;;;;22.25;16.42;;;16.00;99.90;;;;;;4976121;28;20046;-84
2022/06/08 06:36:17;;;;;;;20.33;16.45;;;16.00;94.50;;;;;;4962067;28;20392;-84
2022/06/08 06:38:43;;;;;;;19.40;16.13;;;16.00;99.90;;;;;;4961291;28;20043;-84
2022/06/08 06:41:12;;;;;;;18.85;15.35;;;16.20;99.90;;;;;;4973877;28;20509;-84
2022/06/08 06:43:38;;;;;;;21.25;16.13;;;16.40;93.60;;;;;;4980910;28;20090;-84
2022/06/08 06:46:08;;;;;;;18.80;15.57;;;16.60;59.30;;;;;;4963276;28;20066;-84
2022/06/08 06:48:36;;;;;;;18.92;15.45;;;16.70;99.90;;;;;;4967050;28;20046;-84
2022/06/08 06:51:03;;;;;;;23.90;15.57;;;16.70;20.10;;;;;;4966183;28;20097;-84
2022/06/08 06:53:29;;;;;;;19.83;15.13;;;16.90;4.10;;;;;;4965691;28;20051;-84
2022/06/08 06:56:00;;;;;;;18.48;13.70;;;17.00;1.00;;;;;;4963274;28;20042;-84
2022/06/08 06:58:26;;;;;;;24.80;13.93;;;17.10;1.00;;;;;;4970574;28;20045;-84
2022/06/08 07:00:53;;;;;;;18.35;13.95;;;17.10;1.00;;;;;;4979256;28;20565;-84
2022/06/08 07:03:20;;;;;;;17.65;13.73;;;16.90;1.00;;;;;;4965317;28;20051;-83
2022/06/08 07:05:49;;;;;;;17.50;14.07;;;17.10;1.00;;;;;;4964529;28;20046;-84
2022/06/08 07:08:18;;;;;;;16.77;13.05;;;17.20;1.00;;;;;;4964491;28;20286;-84
2022/06/08 07:11:32;;;;;;;14.13;12.32;;;17.50;1.00;;;;;;4965723;28;20113;-84
2022/06/08 07:13:29;;;;;;;14.98;12.10;;;17.40;1.00;;;;;;4965252;28;20070;-84
2022/06/08 07:15:58;;;;;;;16.00;12.40;;;17.50;1.00;;;;;;4981759;28;20144;-83
2022/06/08 07:18:24;;;;;;;14.52;11.88;;;17.60;1.00;;;;;;4967290;28;20144;-84
2022/06/08 07:20:50;;;;;;;17.55;11.40;;;17.50;99.90;;;;;;4961262;28;20092;-84
2022/06/08 07:23:15;;;;;;;13.10;11.25;;;17.90;1.00;;;;;;4964543;28;20076;-84
2022/06/08 07:25:41;;;;;;;12.07;10.80;;;17.80;99.90;;;;;;4965300;28;20043;-84
2022/06/08 07:28:07;;;;;;;13.70;10.75;;;18.30;99.90;;;;;;4962236;28;20560;-84
2022/06/08 07:30:32;;;;;;;11.98;9.43;;;18.60;99.90;;;;;;4959372;28;20557;-84
2022/06/08 07:33:00;;;;;;;10.80;8.35;;;18.60;99.90;;;;;;4966036;28;20050;-84
2022/06/08 07:35:26;;;;;;;9.55;7.68;;;18.70;99.90;;;;;;4964052;28;20050;-84
2022/06/08 07:37:52;;;;;;;9.65;8.00;;;18.80;99.90;;;;;;4953392;28;20501;-84
2022/06/08 07:40:18;;;;;;;8.52;7.60;;;19.10;99.90;;;;;;4966403;28;20883;-84
2022/06/08 07:42:43;;;;;;;8.23;7.30;;;19.20;99.90;;;;;;4964981;28;20062;-84
2022/06/08 07:45:10;;;;;;;8.73;7.13;;;19.20;99.90;;;;;;4990030;28;20046;-84
2022/06/08 07:49:36;;;;;;;7.82;5.88;;;18.80;99.90;;;;;;4980652;28;20074;-84
2022/06/08 07:50:22;;;;;;;7.28;5.93;;;18.90;99.90;;;;;;4966942;28;20263;-84
2022/06/08 07:52:48;;;;;;;9.18;5.93;;;19.00;99.90;;;;;;4963325;28;20159;-84
2022/06/08 07:55:13;;;;;;;7.93;5.50;;;19.10;99.90;;;;;;4962553;28;20050;-84
2022/06/08 07:57:39;;;;;;;6.47;5.40;;;19.20;99.90;;;;;;4947417;28;20563;-84
2022/06/08 08:00:06;;;;;;;8.10;5.22;;;19.30;99.90;;;;;;4993494;28;20038;-84
2022/06/08 08:02:32;;;;;;;6.90;5.30;;;19.50;99.90;;;;;;4963434;28;20402;-84
2022/06/08 08:04:58;;;;;;;7.47;5.38;;;19.50;99.90;;;;;;4962874;28;20038;-84
2022/06/08 08:07:23;;;;;;;5.78;4.97;;;19.70;99.90;;;;;;4964148;28;20435;-84
2022/06/08 08:09:49;;;;;;;6.85;4.93;;;19.80;99.90;;;;;;4967421;28;20050;-84
2022/06/08 08:12:16;;;;;;;6.43;4.75;;;19.90;99.90;;;;;;4948749;28;20501;-84
2022/06/08 08:14:41;;;;;;;6.45;4.97;;;20.00;99.90;;;;;;4948076;28;20054;-84
2022/06/08 08:17:08;;;;;;;7.15;4.53;;;19.90;99.90;;;;;;4966253;28;20054;-84
2022/06/08 08:19:34;;;;;;;4.90;4.00;;;20.10;99.90;;;;;;4982687;28;20039;-84
2022/06/08 08:22:00;;;;;;;5.20;4.43;;;20.60;99.90;;;;;;4962764;28;20099;-84
2022/06/08 08:24:27;;;;;;;7.47;4.65;;;20.40;99.90;;;;;;4962004;28;20060;-84
2022/06/08 08:26:52;;;;;;;6.22;3.67;;;20.90;99.90;;;;;;4966997;28;20051;-84
2022/06/08 08:29:19;;;;;;;4.72;3.38;;;20.90;99.90;;;;;;4964396;28;20104;-84
2022/06/08 08:31:44;;;;;;;4.45;3.15;;;21.00;99.90;;;;;;4960991;28;20041;-84
2022/06/08 08:34:10;;;;;;;4.97;3.10;;;20.80;99.90;;;;;;4970360;28;20042;-84
2022/06/08 08:36:36;;;;;;;4.45;3.05;;;20.80;99.90;;;;;;4993502;28;20037;-84
2022/06/08 08:39:04;;;;;;;3.30;2.42;;;20.80;99.90;;;;;;4964779;28;20348;-84
2022/06/08 08:44:31;;;;;;;4.38;2.92;;;21.00;99.90;;;;;;4984579;28;20177;-84
2022/06/08 08:47:03;;;;;;;4.70;3.10;;;20.80;99.90;;;;;;4961215;28;20045;-84
2022/06/08 08:49:32;;;;;;;3.65;2.80;;;20.80;99.90;;;;;;4993660;28;20046;-84
2022/06/08 08:52:00;;;;;;;5.07;2.60;;;21.20;99.90;;;;;;4993939;28;20035;-84
2022/06/08 08:54:36;;;;;;;3.78;2.30;;;21.50;99.90;;;;;;4977310;28;20062;-84
2022/06/08 08:57:10;;;;;;;3.25;2.13;;;21.60;99.90;;;;;;4976461;28;20405;-84
2022/06/08 08:59:36;;;;;;;;;;;21.40;99.90;;;;;;4989059;28;20804;-84
2022/06/08 09:02:05;;;;;;;4.13;1.77;;;21.30;99.90;;;;;;4962491;28;20234;-84
2022/06/08 09:04:35;;;;;;;3.15;1.65;;;21.40;99.90;;;;;;4958816;28;20602;-84
2022/06/08 09:07:13;;;;;;;3.88;1.90;;;21.60;99.90;;;;;;4990979;28;20497;-83
2022/06/08 09:09:39;;;;;;;3.65;1.83;;;21.50;99.90;;;;;;4952075;28;20101;-84
2022/06/08 09:12:10;;;;;;;3.92;1.80;;;21.60;99.20;;;;;;4956108;28;20437;-84
2022/06/08 09:14:51;;;;;;;3.08;1.90;;;21.80;99.20;;;;;;4959822;28;20056;-84
2022/06/08 09:17:28;;;;;;;3.15;1.90;;;22.00;99.90;;;;;;4979777;28;20119;-84
2022/06/08 09:19:54;;;;;;;2.28;1.60;;;21.90;96.70;;;;;;4964629;28;20039;-84
2022/06/08 09:22:29;;;;;;;2.83;1.63;;;21.90;64.10;;;;;;4968506;28;20050;-84
2022/06/08 09:25:26;;;;;;;1.95;1.70;;;21.40;68.80;;;;;;4979449;28;20058;-84
2022/06/08 09:27:55;;;;;;;2.90;2.00;;;21.80;87.70;;;;;;4957310;28;20386;-84
2022/06/08 09:30:45;;;;;;;3.10;1.80;;;21.80;99.90;;;;;;4963072;28;20098;-84
2022/06/08 09:33:26;;;;;;;3.15;2.17;;;21.90;83.10;;;;;;4965726;28;20070;-85
2022/06/08 09:35:52;;;;;;;3.15;1.70;;;21.80;99.50;;;;;;4985554;28;20116;-84
2022/06/08 09:38:22;;;;;;;2.85;2.00;;;21.60;94.50;;;;;;4953723;28;20050;-84
2022/06/08 09:41:03;;;;;;;3.72;2.20;;;21.40;99.90;;;;;;4962402;28;21249;-84
2022/06/08 09:43:36;;;;;;;4.07;2.13;;;21.40;99.90;;;;;;4983821;28;20175;-84
2022/06/08 09:52:58;;;;;;;5.68;2.65;;;22.70;95.30;;;;;;4957692;28;20046;-84
2022/06/08 09:55:43;;;;;;;6.22;3.10;;;22.30;96.20;;;;;;4984342;28;20286;-84
2022/06/08 09:58:51;;;;;;;9.68;3.88;;;22.60;91.20;;;;;;4974322;28;20046;-85
2022/06/08 10:01:39;;;;;;;4.47;3.20;;;22.30;86.90;;;;;;4988203;28;20062;-84
2022/06/08 10:04:42;;;;;;;4.68;3.22;;;22.10;81.10;;;;;;4991965;28;21376;-84
2022/06/08 10:07:37;;;;;;;6.38;2.95;;;22.40;99.90;;;;;;4989090;28;20054;-85
2022/06/08 10:10:15;;;;;;;4.00;2.60;;;23.10;30.50;;;;;;4947606;28;20055;-85
2022/06/08 10:12:58;;;;;;;5.00;2.90;;;22.60;99.90;;;;;;4953843;28;20074;-84
2022/06/08 10:15:35;;;;;;;2.83;2.53;;;23.20;89.60;;;;;;4972627;28;20042;-84
2022/06/08 10:18:24;;;;;;;4.80;2.88;;;23.60;45.60;;;;;;4961250;28;20442;-84
2022/06/08 10:20:55;;;;;;;5.03;3.20;;;24.00;21.10;;;;;;4954322;28;20043;-84
2022/06/08 10:23:39;;;;;;;3.67;3.25;;;23.00;24.00;;;;;;4976281;28;20485;-84
2022/06/08 10:26:23;;;;;;;6.95;3.30;;;23.60;20.00;;;;;;4961013;28;20082;-84
2022/06/08 10:28:55;;;;;;;4.93;3.10;;;23.80;8.70;;;;;;4963553;28;20053;-85
2022/06/08 10:31:37;;;;;;;3.80;3.10;;;23.70;8.40;;;;;;4988652;28;20038;-85
2022/06/08 10:34:03;;;;;;;3.17;2.88;;;23.30;10.50;;;;;;4959405;28;20560;-85
2022/06/08 10:36:31;;;;;;;4.88;3.35;;;23.10;44.20;;;;;;4949570;28;20474;-84
2022/06/08 10:39:03;;;;;;;4.20;2.78;;;23.00;31.00;;;;;;4985980;28;20126;-85
2022/06/08 10:44:36;;;;;;;5.28;3.40;;;23.20;77.10;;;;;;4960012;28;20059;-84
2022/06/08 10:47:18;;;;;;;4.13;3.30;;;23.00;60.60;;;;;;4992073;28;20034;-84
2022/06/08 10:49:56;;;;;;;4.25;3.22;;;22.70;14.10;;;;;;4972291;28;20110;-84
2022/06/08 10:52:26;;;;;;;4.93;3.50;;;22.60;32.40;;;;;;4963007;28;20045;-84
2022/06/08 10:55:13;;;;;;;5.72;3.63;;;22.40;37.20;;;;;;4972722;28;20344;-84
2022/06/08 10:57:42;;;;;;;4.75;3.15;;;22.00;79.50;;;;;;4963276;28;20042;-84
2022/06/08 11:00:53;;;;;;;4.28;3.33;;;22.00;50.40;;;;;;4959693;28;20046;-85
2022/06/08 11:03:31;;;;;;;4.78;2.97;;;21.70;83.20;;;;;;4966237;28;20113;-84
2022/06/08 11:05:57;;;;;;;5.20;2.95;;;21.60;82.40;;;;;;4976473;28;20100;-85
2022/06/08 11:08:24;;;;;;;4.00;2.70;;;21.30;70.30;;;;;;4976730;28;20047;-85
2022/06/08 11:10:54;;;;;;;3.15;2.30;;;21.30;83.00;;;;;;4972414;28;20308;-84
2022/06/08 11:13:19;;;;;;;4.53;2.25;;;21.40;84.80;;;;;;4973583;28;20043;-84
2022/06/08 11:16:07;;;;;;;3.80;2.30;;;21.40;99.90;;;;;;4975498;28;20047;-85
2022/06/08 11:18:41;;;;;;;3.70;2.28;;;21.30;85.00;;;;;;4990780;28;20054;-84
2022/06/08 11:21:13;;;;;;;6.07;2.45;;;21.30;77.20;;;;;;4962815;28;20050;-84
2022/06/08 11:23:50;;;;;;;3.80;2.25;;;21.30;90.30;;;;;;4961859;28;20061;-84
2022/06/08 11:26:25;;;;;;;3.28;2.20;;;21.30;71.10;;;;;;4984771;28;20050;-84
2022/06/08 11:29:23;;;;;;;3.65;2.50;;;21.30;76.50;;;;;;4961028;28;20042;-84
2022/06/08 11:31:55;;;;;;;5.13;2.17;;;21.40;87.70;;;;;;4975634;28;20039;-85
2022/06/08 11:34:21;;;;;;;4.85;2.50;;;21.30;89.20;;;;;;4967032;28;20395;-85
2022/06/08 11:37:21;;;;;;;4.07;2.65;;;21.40;79.10;;;;;;4951201;28;20053;-85
2022/06/08 11:40:09;;;;;;;3.95;2.60;;;21.10;42.50;;;;;;4993280;28;20042;-85
2022/06/08 11:43:09;;;;;;;5.28;2.97;;;20.90;92.90;;;;;;4967520;28;20087;-85
2022/06/08 11:45:40;;;;;;;5.53;2.78;;;20.80;97.20;;;;;;4975678;28;20058;-84
2022/06/08 11:48:16;;;;;;;5.90;2.78;;;20.90;92.50;;;;;;4989376;28;20081;-85
2022/06/08 11:50:58;;;;;;;5.22;2.90;;;20.80;98.80;;;;;;4971446;28;20032;-85
2022/06/08 11:53:36;;;;;;;5.80;2.83;;;21.00;99.90;;;;;;4958670;28;20049;-85
2022/06/08 11:56:30;;;;;;;4.35;2.78;;;20.90;98.10;;;;;;4961201;28;20042;-85
2022/06/08 11:58:59;;;;;;;5.95;2.80;;;20.90;99.90;;;;;;4959809;28;20524;-85
2022/06/08 12:01:49;;;;;;;4.50;3.03;;;20.90;99.90;;;;;;4953376;28;20073;-85
2022/06/08 12:04:29;;;;;;;6.18;2.88;;;20.90;99.90;;;;;;4989789;28;20058;-85
2022/06/08 12:06:56;;;;;;;5.15;2.97;;;20.80;99.90;;;;;;4955130;28;20554;-85
2022/06/08 12:09:29;;;;;;;5.05;3.10;;;20.70;99.90;;;;;;4961487;28;20067;-85
2022/06/08 12:12:04;;;;;;;4.70;2.88;;;20.80;99.90;;;;;;4977608;28;20513;-86
2022/06/08 12:14:34;;;;;;;4.63;2.97;;;20.90;99.90;;;;;;4961401;28;20054;-85
2022/06/08 12:17:11;;;;;;;6.65;3.33;;;21.00;99.90;;;;;;4991704;28;20359;-85
2022/06/08 12:19:46;;;;;;;5.97;3.28;;;20.80;99.90;;;;;;4961937;28;20075;-87
2022/06/08 12:22:16;;;;;;;;;;;20.70;99.90;;;;;;4993746;28;20051;-87
2022/06/08 12:24:41;;;;;;;7.05;3.78;;;20.40;99.90;;;;;;4976234;28;19922;-87
2022/06/08 12:27:20;;;;;;;12.90;3.90;;;19.70;99.90;;;;;;4957149;28;20398;-82
2022/06/08 12:29:56;;;;;;;10.38;2.90;;;18.30;99.90;;;;;;4978192;28;20121;-84
2022/06/08 12:32:34;;;;;;;7.00;2.90;;;17.90;99.90;;;;;;4977844;28;20129;-87
2022/06/08 12:35:06;;;;;;;7.72;2.42;;;17.70;1.00;;;;;;4959572;28;20054;-87
2022/06/08 12:37:44;;;;;;;;;;;17.50;1.00;;;;;;4958147;28;20050;-88
2022/06/08 12:40:16;;;;;;;7.40;2.63;;;17.40;78.40;;;;;;4979039;28;19926;-88
2022/06/08 12:42:48;;;;;;;6.47;2.67;;;17.40;99.90;;;;;;4979309;28;20070;-88
2022/06/08 12:45:30;;;;;;;5.38;1.95;;;17.40;99.90;;;;;;4961639;28;20093;-89
2022/06/08 12:48:21;;;;;;;8.43;2.15;;;17.50;68.80;;;;;;4976118;28;20345;-88
2022/06/08 12:50:47;;;;;;;4.22;1.90;;;17.40;99.90;;;;;;4959657;28;20053;-89
2022/06/08 12:53:13;;;;;;;5.97;1.95;;;17.50;99.90;;;;;;4970942;28;20482;-88
2022/06/08 12:55:44;;;;;;;7.20;2.35;;;17.30;99.90;;;;;;4976350;28;20082;-88
2022/06/08 12:58:10;;;;;;;5.45;2.10;;;17.30;99.90;;;;;;4969493;28;20058;-88
2022/06/08 13:00:38;;;;;;;6.28;2.60;;;17.20;99.90;;;;;;4968936;28;20098;-88
2022/06/08 13:03:19;;;;;;;6.63;2.42;;;17.20;99.90;;;;;;4991943;28;20473;-88
2022/06/08 13:05:45;;;;;;;5.53;1.90;;;17.10;99.90;;;;;;4959791;28;20105;-87
2022/06/08 13:08:16;;;;;;;7.10;2.28;;;17.00;99.90;;;;;;4957929;28;20034;-86
2022/06/08 13:10:44;;;;;;;4.55;2.50;;;16.80;99.90;;;;;;4988383;28;20454;-86
2022/06/08 13:13:20;;;;;;;4.32;2.10;;;16.90;99.90;;;;;;4958097;28;20042;-87
2022/06/08 13:15:47;;;;;;;4.60;2.47;;;16.90;99.90;;;;;;4990448;28;20049;-87
2022/06/08 13:18:24;;;;;;;3.35;2.15;;;17.10;99.90;;;;;;4956193;28;20489;-87
2022/06/08 13:20:52;;;;;;;3.83;2.03;;;17.10;99.90;;;;;;4978422;28;20502;-86
2022/06/08 13:23:19;;;;;;;5.38;2.35;;;17.10;99.90;;;;;;4958710;28;20449;-87